createdAt,value
2022-12-11T00:01:23.463Z,0.00
2022-12-11T00:03:52.487Z,-0.10
2022-12-11T00:06:24.384Z,-0.10
2022-12-11T00:08:54.149Z,-0.10
2022-12-11T00:11:25.316Z,0.00
2022-12-11T00:13:54.338Z,0.00
2022-12-11T00:16:26.904Z,0.00
2022-12-11T00:18:57.653Z,0.00
2022-12-11T00:21:27.345Z,0.00
2022-12-11T00:23:56.362Z,-0.10
2022-12-11T00:26:26.770Z,-0.20
2022-12-11T00:28:57.404Z,-0.20
2022-12-11T00:31:26.436Z,-0.30
2022-12-11T00:33:55.474Z,-0.20
2022-12-11T00:36:27.389Z,-0.20
2022-12-11T00:38:56.392Z,-0.20
2022-12-11T00:41:26.888Z,-0.20
2022-12-11T00:43:55.920Z,-0.20
2022-12-11T00:46:24.933Z,-0.30
2022-12-11T00:48:54.248Z,-0.30
2022-12-11T00:51:23.213Z,-0.40
2022-12-11T00:53:52.163Z,-0.30
2022-12-11T00:56:23.171Z,-0.40
2022-12-11T00:58:53.724Z,-0.40
2022-12-11T01:01:25.407Z,-0.30
2022-12-11T01:03:55.267Z,-0.30
2022-12-11T01:06:26.625Z,-0.40
2022-12-11T01:09:10.133Z,-0.40
2022-12-11T01:11:39.594Z,-0.30
2022-12-11T01:14:11.049Z,-0.40
2022-12-11T01:16:40.309Z,-0.40
2022-12-11T01:19:09.352Z,-0.40
2022-12-11T01:21:38.381Z,-0.40
2022-12-11T01:24:07.964Z,-0.40
2022-12-11T01:26:37.265Z,-0.40
2022-12-11T01:29:06.356Z,-0.30
2022-12-11T01:31:36.783Z,-0.30
2022-12-11T01:34:05.822Z,-0.30
2022-12-11T01:36:34.817Z,-0.30
2022-12-11T01:39:03.880Z,-0.40
2022-12-11T01:41:32.906Z,-0.40
2022-12-11T01:44:05.374Z,-0.40
2022-12-11T01:46:37.013Z,-0.50
2022-12-11T01:49:09.558Z,-0.60
2022-12-11T01:51:44.146Z,-0.60
2022-12-11T01:54:16.392Z,-0.70
2022-12-11T01:56:47.825Z,-0.70
2022-12-11T01:59:20.528Z,-0.60
2022-12-11T02:01:55.738Z,-0.60
2022-12-11T02:04:25.903Z,-0.80
2022-12-11T02:06:55.678Z,-0.90
2022-12-11T02:09:27.620Z,-0.80
2022-12-11T02:12:03.391Z,-0.90
2022-12-11T02:14:40.488Z,-0.90
2022-12-11T02:17:16.716Z,-0.90
2022-12-11T02:19:59.448Z,-0.90
2022-12-11T02:22:39.194Z,-0.90
2022-12-11T02:25:18.062Z,-0.90
2022-12-11T02:27:50.042Z,-0.90
2022-12-11T02:30:20.658Z,-0.90
2022-12-11T02:32:54.992Z,-0.90
2022-12-11T02:35:27.699Z,-0.80
2022-12-11T02:38:00.258Z,-0.70
2022-12-11T02:40:32.842Z,-0.70
2022-12-11T02:43:06.072Z,-0.80
2022-12-11T02:45:38.514Z,-0.80
2022-12-11T02:48:09.925Z,-0.70
2022-12-11T02:50:44.033Z,-0.80
2022-12-11T02:53:14.847Z,-0.90
2022-12-11T02:55:45.482Z,-0.90
2022-12-11T02:58:19.575Z,-0.90
2022-12-11T03:00:50.192Z,-0.90
2022-12-11T03:03:19.352Z,-0.90
2022-12-11T03:05:48.417Z,-0.90
2022-12-11T03:08:18.296Z,-0.90
2022-12-11T03:10:48.140Z,-0.90
2022-12-11T03:13:21.303Z,-1.00
2022-12-11T03:16:06.027Z,-1.00
2022-12-11T03:18:41.380Z,-1.00
2022-12-11T03:21:16.754Z,-1.10
2022-12-11T03:23:51.492Z,-1.00
2022-12-11T03:26:22.431Z,-1.10
2022-12-11T03:28:57.327Z,-1.00
2022-12-11T03:31:32.353Z,-1.10
2022-12-11T03:34:04.694Z,-1.00
2022-12-11T03:36:37.633Z,-1.10
2022-12-11T03:39:10.812Z,-1.10
2022-12-11T03:41:41.262Z,-1.10
2022-12-11T03:44:11.212Z,-1.10
2022-12-11T03:46:44.953Z,-1.10
2022-12-11T03:49:18.773Z,-1.20
2022-12-11T03:51:49.859Z,-1.10
2022-12-11T03:54:19.762Z,-1.10
2022-12-11T03:56:50.276Z,-1.10
2022-12-11T03:59:19.408Z,-1.00
2022-12-11T04:01:49.955Z,-1.10
2022-12-11T04:04:19.255Z,-1.00
2022-12-11T04:06:48.604Z,-1.00
2022-12-11T04:09:17.610Z,-1.00
2022-12-11T04:11:46.548Z,-1.00
2022-12-11T04:14:33.575Z,-1.00
2022-12-11T04:17:03.987Z,-1.00
2022-12-11T04:19:50.194Z,-0.90
2022-12-11T04:22:37.492Z,-1.00
2022-12-11T04:25:09.522Z,-1.00
2022-12-11T04:27:50.871Z,-1.00
2022-12-11T04:30:22.307Z,-1.00
2022-12-11T04:32:54.493Z,-1.10
2022-12-11T04:35:24.265Z,-1.10
2022-12-11T04:37:54.039Z,-1.10
2022-12-11T04:40:23.513Z,-1.00
2022-12-11T04:42:52.608Z,-1.10
2022-12-11T04:45:21.769Z,-1.10
2022-12-11T04:47:52.377Z,-1.10
2022-12-11T04:50:21.496Z,-1.10
2022-12-11T04:52:50.588Z,-1.20
2022-12-11T04:55:19.732Z,-1.20
2022-12-11T04:57:48.807Z,-1.20
2022-12-11T05:00:18.673Z,-1.20
2022-12-11T05:02:47.709Z,-1.30
2022-12-11T05:05:18.228Z,-1.30
2022-12-11T05:07:47.221Z,-1.20
2022-12-11T05:10:16.235Z,-1.20
2022-12-11T05:12:45.162Z,-1.20
2022-12-11T05:15:14.231Z,-1.20
2022-12-11T05:17:43.224Z,-1.10
2022-12-11T05:20:12.852Z,-1.10
2022-12-11T05:22:43.304Z,-1.20
2022-12-11T05:25:12.581Z,-1.30
2022-12-11T05:27:41.752Z,-1.30
2022-12-11T05:30:11.844Z,-1.30
2022-12-11T05:32:40.855Z,-1.40
2022-12-11T05:35:10.456Z,-1.30
2022-12-11T05:37:39.554Z,-1.30
2022-12-11T05:40:12.949Z,-1.20
2022-12-11T05:42:42.045Z,-1.20
2022-12-11T05:45:12.278Z,-1.20
2022-12-11T05:47:41.487Z,-1.20
2022-12-11T05:50:12.106Z,-1.20
2022-12-11T05:52:41.123Z,-1.20
2022-12-11T05:55:12.290Z,-1.30
2022-12-11T05:57:41.430Z,-1.40
2022-12-11T06:00:13.044Z,-1.30
2022-12-11T06:02:42.181Z,-1.40
2022-12-11T06:05:11.537Z,-1.40
2022-12-11T06:07:40.693Z,-1.40
2022-12-11T06:10:12.030Z,-1.40
2022-12-11T06:12:41.154Z,-1.50
2022-12-11T06:15:11.185Z,-1.50
2022-12-11T06:17:40.339Z,-1.50
2022-12-11T06:20:10.160Z,-1.50
2022-12-11T06:22:54.026Z,-1.50
2022-12-11T06:25:24.494Z,-1.60
2022-12-11T06:27:53.593Z,-1.60
2022-12-11T06:30:22.959Z,-1.70
2022-12-11T06:33:07.834Z,-1.60
2022-12-11T06:35:42.068Z,-1.70
2022-12-11T06:38:11.847Z,-1.70
2022-12-11T06:40:42.334Z,-1.70
2022-12-11T06:43:11.436Z,-1.70
2022-12-11T06:45:40.612Z,-1.70
2022-12-11T06:48:09.983Z,-1.60
2022-12-11T06:50:40.138Z,-1.70
2022-12-11T06:53:09.121Z,-1.70
2022-12-11T06:55:38.731Z,-1.70
2022-12-11T06:58:09.559Z,-1.70
2022-12-11T07:00:39.776Z,-1.70
2022-12-11T07:03:08.825Z,-1.70
2022-12-11T07:05:37.818Z,-1.70
2022-12-11T07:08:07.651Z,-1.70
2022-12-11T07:10:36.714Z,-1.70
2022-12-11T07:13:05.680Z,-1.70
2022-12-11T07:15:40.241Z,-1.80
2022-12-11T07:18:10.977Z,-1.70
2022-12-11T07:20:39.976Z,-1.70
2022-12-11T07:23:09.294Z,-1.80
2022-12-11T07:25:39.267Z,-1.90
2022-12-11T07:28:10.095Z,-1.90
2022-12-11T07:30:43.805Z,-1.90
2022-12-11T07:33:12.860Z,-1.90
2022-12-11T07:35:41.854Z,-2.00
2022-12-11T07:38:10.849Z,-1.90
2022-12-11T07:40:39.819Z,-1.90
2022-12-11T07:43:08.876Z,-1.90
2022-12-11T07:45:37.909Z,-1.80
2022-12-11T07:48:08.626Z,-1.80
2022-12-11T07:50:39.968Z,-1.80
2022-12-11T07:53:09.134Z,-1.80
2022-12-11T07:55:38.195Z,-1.70
2022-12-11T07:58:07.200Z,-1.70
2022-12-11T08:00:36.193Z,-1.70
2022-12-11T08:03:05.400Z,-1.70
2022-12-11T08:05:35.837Z,-1.60
2022-12-11T08:08:05.363Z,-1.70
2022-12-11T08:10:34.395Z,-1.60
2022-12-11T08:13:03.931Z,-1.70
2022-12-11T08:15:33.991Z,-1.70
2022-12-11T08:18:03.135Z,-1.70
2022-12-11T08:20:32.390Z,-1.70
2022-12-11T08:23:02.894Z,-1.70
2022-12-11T08:25:31.906Z,-1.70
2022-12-11T08:28:00.879Z,-1.60
2022-12-11T08:30:30.755Z,-1.60
2022-12-11T08:33:01.137Z,-1.60
2022-12-11T08:35:30.515Z,-1.50
2022-12-11T08:37:59.820Z,-1.60
2022-12-11T08:40:30.417Z,-1.70
2022-12-11T08:43:00.075Z,-1.70
2022-12-11T08:45:29.084Z,-1.70
2022-12-11T08:47:59.540Z,-1.70
2022-12-11T08:50:28.704Z,-1.60
2022-12-11T08:52:57.739Z,-1.60
2022-12-11T08:55:27.253Z,-1.70
2022-12-11T08:57:57.710Z,-1.70
2022-12-11T09:00:26.731Z,-1.70
2022-12-11T09:02:55.838Z,-1.70
2022-12-11T09:05:24.935Z,-1.70
2022-12-11T09:07:54.052Z,-1.70
2022-12-11T09:10:23.485Z,-1.70
2022-12-11T09:12:52.539Z,-1.60
2022-12-11T09:15:23.166Z,-1.70
2022-12-11T09:17:52.225Z,-1.60
2022-12-11T09:20:21.212Z,-1.60
2022-12-11T09:22:50.260Z,-1.60
2022-12-11T09:25:19.410Z,-1.60
2022-12-11T09:27:48.420Z,-1.50
2022-12-11T09:30:17.564Z,-1.50
2022-12-11T09:32:48.079Z,-1.50
2022-12-11T09:35:17.169Z,-1.40
2022-12-11T09:37:46.238Z,-1.30
2022-12-11T09:40:15.717Z,-1.30
2022-12-11T09:42:54.490Z,-1.40
2022-12-11T09:45:23.600Z,-1.40
2022-12-11T09:47:56.233Z,-1.40
2022-12-11T09:50:26.962Z,-1.40
2022-12-11T09:53:04.401Z,-1.40
2022-12-11T09:55:44.852Z,-1.50
2022-12-11T09:58:24.691Z,-1.50
2022-12-11T10:00:59.447Z,-1.50
2022-12-11T10:03:50.730Z,-1.50
2022-12-11T10:06:25.401Z,-1.40
2022-12-11T10:09:04.792Z,-1.40
2022-12-11T10:11:56.943Z,-1.30
2022-12-11T10:14:36.887Z,-1.40
2022-12-11T10:17:11.870Z,-1.40
2022-12-11T10:19:43.525Z,-1.40
2022-12-11T10:22:20.371Z,-1.40
2022-12-11T10:25:10.726Z,-1.30
2022-12-11T10:27:42.498Z,-1.30
2022-12-11T10:30:18.343Z,-1.30
2022-12-11T10:32:58.838Z,-1.30
2022-12-11T10:35:36.219Z,-1.30
2022-12-11T10:38:15.517Z,-1.30
2022-12-11T10:40:46.518Z,-1.20
2022-12-11T10:43:15.599Z,-1.20
2022-12-11T10:45:53.344Z,-1.20
2022-12-11T10:48:23.368Z,-1.20
2022-12-11T10:51:02.894Z,-1.30
2022-12-11T10:53:32.886Z,-1.30
2022-12-11T10:56:03.064Z,-1.30
2022-12-11T10:58:35.410Z,-1.30
2022-12-11T11:01:11.038Z,-1.30
2022-12-11T11:03:56.477Z,-1.30
2022-12-11T11:06:28.017Z,-1.40
2022-12-11T11:09:00.272Z,-1.30
2022-12-11T11:11:33.886Z,-1.40
2022-12-11T11:14:08.836Z,-1.40
2022-12-11T11:16:39.762Z,-1.40
2022-12-11T11:19:09.172Z,-1.40
2022-12-11T11:21:49.156Z,-1.40
2022-12-11T11:24:28.980Z,-1.40
2022-12-11T11:27:14.732Z,-1.30
2022-12-11T11:29:46.671Z,-1.30
2022-12-11T11:32:24.110Z,-1.40
2022-12-11T11:34:54.408Z,-1.40
2022-12-11T11:37:29.032Z,-1.40
2022-12-11T11:40:04.595Z,-1.30
2022-12-11T11:42:44.684Z,-1.20
2022-12-11T11:45:18.914Z,-1.30
2022-12-11T11:47:57.057Z,-1.40
2022-12-11T11:50:33.121Z,-1.30
2022-12-11T11:53:07.218Z,-1.30
2022-12-11T11:55:44.250Z,-1.30
2022-12-11T11:58:19.530Z,-1.30
2022-12-11T12:00:48.624Z,-1.30
2022-12-11T12:03:20.580Z,-1.20
2022-12-11T12:05:55.680Z,-1.20
2022-12-11T12:08:37.586Z,-1.20
2022-12-11T12:11:13.841Z,-1.30
2022-12-11T12:13:51.385Z,-1.30
2022-12-11T12:16:52.043Z,-1.20
2022-12-11T12:19:36.594Z,-1.20
2022-12-11T12:22:21.216Z,-1.20
2022-12-11T12:25:02.305Z,-1.10
2022-12-11T12:27:54.045Z,-1.10
2022-12-11T12:30:24.156Z,-1.30
2022-12-11T12:33:12.786Z,-1.40
2022-12-11T12:35:52.055Z,-1.50
2022-12-11T12:38:30.942Z,-1.50
2022-12-11T12:41:14.374Z,-1.50
2022-12-11T12:43:55.598Z,-1.50
2022-12-11T12:46:36.241Z,-1.50
2022-12-11T12:49:09.618Z,-1.60
2022-12-11T12:51:39.217Z,-1.50
2022-12-11T12:54:12.578Z,-1.30
2022-12-11T12:56:45.366Z,-1.20
2022-12-11T12:59:22.449Z,-1.20
2022-12-11T13:01:55.568Z,-1.10
2022-12-11T13:04:55.901Z,-1.10
2022-12-11T13:07:32.998Z,-1.30
2022-12-11T13:10:08.983Z,-1.40
2022-12-11T13:12:47.309Z,-1.40
2022-12-11T13:15:27.876Z,-1.40
2022-12-11T13:17:57.438Z,-1.50
2022-12-11T13:20:28.994Z,-1.50
2022-12-11T13:23:16.783Z,-1.60
2022-12-11T13:25:53.674Z,-1.50
2022-12-11T13:28:27.717Z,-1.50
2022-12-11T13:31:07.878Z,-1.50
2022-12-11T13:33:44.659Z,-1.50
2022-12-11T13:36:31.394Z,-1.40
2022-12-11T13:39:04.063Z,-1.40
2022-12-11T13:41:38.437Z,-1.40
2022-12-11T13:44:10.310Z,-1.50
2022-12-11T13:46:41.545Z,-1.50
2022-12-11T13:49:23.891Z,-1.50
2022-12-11T13:51:56.546Z,-1.50
2022-12-11T13:54:26.686Z,-1.50
2022-12-11T13:57:01.737Z,-1.60
2022-12-11T13:59:35.654Z,-1.60
2022-12-11T14:02:16.858Z,-1.60
2022-12-11T14:04:46.742Z,-1.60
2022-12-11T14:07:23.270Z,-1.60
2022-12-11T14:09:53.085Z,-1.60
2022-12-11T14:12:24.163Z,-1.60
2022-12-11T14:14:57.446Z,-1.60
2022-12-11T14:17:29.485Z,-1.50
2022-12-11T14:20:01.297Z,-1.50
2022-12-11T14:22:31.818Z,-1.60
2022-12-11T14:25:14.888Z,-1.60
2022-12-11T14:27:50.262Z,-1.80
2022-12-11T14:30:26.156Z,-1.80
2022-12-11T14:32:59.753Z,-1.80
2022-12-11T14:35:37.044Z,-1.80
2022-12-11T14:38:15.979Z,-1.90
2022-12-11T14:40:51.320Z,-1.80
2022-12-11T14:43:27.359Z,-1.80
2022-12-11T14:46:01.826Z,-1.90
2022-12-11T14:48:35.650Z,-1.90
2022-12-11T14:51:09.008Z,-1.80
2022-12-11T14:53:42.888Z,-1.70
2022-12-11T14:56:19.515Z,-1.70
2022-12-11T14:58:57.394Z,-1.60
2022-12-11T15:01:31.314Z,-1.60
2022-12-11T15:04:08.084Z,-1.50
2022-12-11T15:06:44.959Z,-1.50
2022-12-11T15:09:38.018Z,-1.60
2022-12-11T15:12:13.459Z,-1.50
2022-12-11T15:14:50.366Z,-1.50
2022-12-11T15:17:22.309Z,-1.50
2022-12-11T15:19:54.916Z,-1.50
2022-12-11T15:22:33.822Z,-1.50
2022-12-11T15:25:04.059Z,-1.40
2022-12-11T15:27:36.969Z,-1.50
2022-12-11T15:30:28.683Z,-1.50
2022-12-11T15:33:34.293Z,-1.50
2022-12-11T15:36:07.815Z,-1.50
2022-12-11T15:38:40.860Z,-1.50
2022-12-11T15:41:16.576Z,-1.60
2022-12-11T15:43:46.774Z,-1.60
2022-12-11T15:46:16.458Z,-1.60
2022-12-11T15:48:46.074Z,-1.50
2022-12-11T15:51:17.051Z,-1.60
2022-12-11T15:53:46.834Z,-1.60
2022-12-11T15:56:17.140Z,-1.70
2022-12-11T15:58:48.702Z,-1.70
2022-12-11T16:01:19.378Z,-1.60
2022-12-11T16:03:50.965Z,-1.50
2022-12-11T16:06:31.276Z,-1.40
2022-12-11T16:09:01.735Z,-1.30
2022-12-11T16:11:31.179Z,-1.30
2022-12-11T16:14:03.618Z,-1.20
2022-12-11T16:16:33.877Z,-1.20
2022-12-11T16:19:03.160Z,-1.20
2022-12-11T16:21:34.342Z,-1.20
2022-12-11T16:24:03.714Z,-1.20
2022-12-11T16:26:33.438Z,-1.20
2022-12-11T16:29:02.826Z,-1.20
2022-12-11T16:31:32.504Z,-1.10
2022-12-11T16:34:01.969Z,-1.20
2022-12-11T16:36:32.692Z,-1.10
2022-12-11T16:39:02.153Z,-1.00
2022-12-11T16:41:32.662Z,-1.00
2022-12-11T16:44:07.179Z,-1.00
2022-12-11T16:46:37.916Z,-1.00
2022-12-11T16:49:10.161Z,-1.00
2022-12-11T16:51:41.039Z,-1.10
2022-12-11T16:54:10.819Z,-1.10
2022-12-11T16:56:41.067Z,-1.20
2022-12-11T16:59:13.452Z,-1.10
2022-12-11T17:01:45.101Z,-1.00
2022-12-11T17:04:14.565Z,-1.00
2022-12-11T17:06:46.516Z,-1.00
2022-12-11T17:09:15.580Z,-1.10
2022-12-11T17:11:44.895Z,-1.10
2022-12-11T17:14:14.469Z,-1.00
2022-12-11T17:16:45.820Z,-1.00
2022-12-11T17:19:15.503Z,-0.90
2022-12-11T17:21:51.606Z,-0.90
2022-12-11T17:24:22.103Z,-0.90
2022-12-11T17:26:52.689Z,-0.90
2022-12-11T17:29:22.538Z,-0.90
2022-12-11T17:32:02.230Z,-1.00
2022-12-11T17:34:38.151Z,-0.90
2022-12-11T17:37:10.540Z,-1.00
2022-12-11T17:39:41.160Z,-1.10
2022-12-11T17:42:11.517Z,-1.10
2022-12-11T17:44:41.689Z,-1.10
2022-12-11T17:47:12.355Z,-1.00
2022-12-11T17:49:42.123Z,-1.10
2022-12-11T17:52:16.543Z,-1.00
2022-12-11T17:54:46.013Z,-1.10
2022-12-11T17:57:16.158Z,-1.10
2022-12-11T17:59:45.875Z,-1.10
2022-12-11T18:02:17.404Z,-1.00
2022-12-11T18:04:47.590Z,-1.00
2022-12-11T18:07:22.899Z,-1.00
2022-12-11T18:09:52.539Z,-1.00
2022-12-11T18:12:22.319Z,-0.90
2022-12-11T18:14:55.151Z,-1.10
2022-12-11T18:17:27.805Z,-1.00
2022-12-11T18:20:01.590Z,-1.00
2022-12-11T18:22:37.695Z,-1.00
2022-12-11T18:25:11.150Z,-1.10
2022-12-11T18:27:42.251Z,-1.10
2022-12-11T18:30:15.157Z,-1.10
2022-12-11T18:32:46.676Z,-1.10
2022-12-11T18:35:17.686Z,-1.10
2022-12-11T18:37:49.119Z,-1.00
2022-12-11T18:40:19.237Z,-1.10
2022-12-11T18:42:49.418Z,-1.00
2022-12-11T18:45:19.458Z,-1.00
2022-12-11T18:47:51.339Z,-1.00
2022-12-11T18:50:21.340Z,-1.00
2022-12-11T18:52:57.755Z,-1.00
2022-12-11T18:55:28.699Z,-1.00
2022-12-11T18:57:59.031Z,-0.90
2022-12-11T19:00:29.872Z,-0.90
2022-12-11T19:03:00.098Z,-0.80
2022-12-11T19:05:32.080Z,-0.90
2022-12-11T19:08:05.093Z,-0.90
2022-12-11T19:10:35.355Z,-0.90
2022-12-11T19:13:06.018Z,-1.00
2022-12-11T19:15:42.978Z,-1.00
2022-12-11T19:18:16.555Z,-1.00
2022-12-11T19:20:52.197Z,-1.00
2022-12-11T19:23:31.789Z,-0.90
2022-12-11T19:26:05.921Z,-0.80
2022-12-11T19:28:38.587Z,-0.90
2022-12-11T19:31:12.467Z,-0.90
2022-12-11T19:33:43.669Z,-0.90
2022-12-11T19:36:16.654Z,-0.90
2022-12-11T19:38:50.605Z,-0.80
2022-12-11T19:41:23.652Z,-0.90
2022-12-11T19:43:55.233Z,-0.90
2022-12-11T19:46:30.728Z,-0.90
2022-12-11T19:49:02.745Z,-1.00
2022-12-11T19:51:35.188Z,-1.00
2022-12-11T19:54:14.124Z,-1.00
2022-12-11T19:56:45.616Z,-1.20
2022-12-11T19:59:19.079Z,-1.20
2022-12-11T20:01:51.565Z,-1.20
2022-12-11T20:04:23.910Z,-1.20
2022-12-11T20:06:55.035Z,-1.10
2022-12-11T20:09:26.961Z,-1.20
2022-12-11T20:12:06.769Z,-1.20
2022-12-11T20:14:37.336Z,-1.20
2022-12-11T20:17:12.518Z,-1.30
2022-12-11T20:19:47.075Z,-1.30
2022-12-11T20:22:18.584Z,-1.20
2022-12-11T20:24:51.119Z,-1.20
2022-12-11T20:27:21.672Z,-1.20
2022-12-11T20:29:52.516Z,-1.10
2022-12-11T20:32:24.695Z,-1.10
2022-12-11T20:35:02.169Z,-1.20
2022-12-11T20:37:33.169Z,-1.20
2022-12-11T20:40:08.990Z,-1.30
2022-12-11T20:42:41.381Z,-1.20
2022-12-11T20:45:13.147Z,-1.30
2022-12-11T20:47:44.366Z,-1.30
2022-12-11T20:50:15.365Z,-1.30
2022-12-11T20:52:46.029Z,-1.30
2022-12-11T20:55:18.275Z,-1.20
2022-12-11T20:57:49.579Z,-1.30
2022-12-11T21:00:20.867Z,-1.30
2022-12-11T21:02:52.153Z,-1.30
2022-12-11T21:05:23.554Z,-1.40
2022-12-11T21:07:56.286Z,-1.40
2022-12-11T21:10:28.395Z,-1.40
2022-12-11T21:12:59.309Z,-1.40
2022-12-11T21:15:29.907Z,-1.40
2022-12-11T21:17:59.739Z,-1.40
2022-12-11T21:20:33.657Z,-1.40
2022-12-11T21:23:05.948Z,-1.40
2022-12-11T21:25:41.160Z,-1.30
2022-12-11T21:28:11.160Z,-1.30
2022-12-11T21:30:42.171Z,-1.30
2022-12-11T21:33:11.569Z,-1.30
2022-12-11T21:35:41.274Z,-1.30
2022-12-11T21:38:11.138Z,-1.30
2022-12-11T21:40:42.099Z,-1.30
2022-12-11T21:43:11.243Z,-1.20
2022-12-11T21:48:30.138Z,-1.30
2022-12-11T21:51:07.795Z,-1.30
2022-12-11T21:53:37.478Z,-1.20
2022-12-11T21:56:10.830Z,-1.20
2022-12-11T21:58:42.478Z,-1.20
2022-12-11T22:01:17.091Z,-1.10
2022-12-11T22:03:46.276Z,-1.00
2022-12-11T22:06:15.358Z,-1.10
2022-12-11T22:08:44.729Z,-1.10
2022-12-11T22:11:16.188Z,-1.10
2022-12-11T22:13:45.304Z,-1.10
2022-12-11T22:16:14.425Z,-1.10
2022-12-11T22:18:43.837Z,-1.00
2022-12-11T22:21:13.073Z,-1.00
2022-12-11T22:23:43.145Z,-1.00
2022-12-11T22:26:17.312Z,-1.00
2022-12-11T22:28:46.620Z,-1.10
2022-12-11T22:31:17.553Z,-1.00
2022-12-11T22:33:46.741Z,-1.00
2022-12-11T22:36:15.856Z,-1.00
2022-12-11T22:38:45.014Z,-1.00
2022-12-11T22:41:22.037Z,-1.00
2022-12-11T22:43:51.758Z,-1.10
2022-12-11T22:46:22.117Z,-1.20
2022-12-11T22:48:51.602Z,-1.10
2022-12-11T22:51:20.846Z,-1.10
2022-12-11T22:53:49.866Z,-1.10
2022-12-11T22:56:20.504Z,-1.10
2022-12-11T22:58:49.666Z,-1.10
2022-12-11T23:01:21.250Z,-1.00
2022-12-11T23:03:50.897Z,-1.10
2022-12-11T23:06:22.801Z,-1.10
2022-12-11T23:08:52.245Z,-1.10
2022-12-11T23:11:26.082Z,-1.10
2022-12-11T23:13:55.581Z,-1.10
2022-12-11T23:16:26.833Z,-1.10
2022-12-11T23:18:56.619Z,-1.10
2022-12-11T23:21:26.918Z,-1.00
2022-12-11T23:23:56.435Z,-1.00
2022-12-11T23:26:28.641Z,-1.10
2022-12-11T23:28:58.534Z,-1.20
2022-12-11T23:31:28.332Z,-1.10
2022-12-11T23:33:57.762Z,-1.10
2022-12-11T23:36:27.778Z,-1.20
2022-12-11T23:38:56.943Z,-1.20
2022-12-11T23:41:27.497Z,-1.10
2022-12-11T23:43:56.554Z,-1.10
2022-12-11T23:46:26.503Z,-1.20
2022-12-11T23:48:56.122Z,-1.20
2022-12-11T23:51:26.681Z,-1.20
2022-12-11T23:53:56.311Z,-1.30
2022-12-11T23:56:28.494Z,-1.30
2022-12-11T23:58:58.251Z,-1.30
